sensor_id;sensor_type;location;lat;lon;timestamp;P1;durP1;ratioP1;P2;durP2;ratioP2
72275;SDS011;61204;49.980;8.358;2024-02-15T00:00:12;14.73;;;9.82;;
72275;SDS011;61204;49.980;8.358;2024-02-15T00:02:41;16.30;;;9.65;;
72275;SDS011;61204;49.980;8.358;2024-02-15T00:05:09;14.95;;;9.45;;
72275;SDS011;61204;49.980;8.358;2024-02-15T00:07:36;14.88;;;9.50;;
72275;SDS011;61204;49.980;8.358;2024-02-15T00:10:02;14.25;;;9.25;;
72275;SDS011;61204;49.980;8.358;2024-02-15T00:12:29;13.77;;;9.32;;
72275;SDS011;61204;49.980;8.358;2024-02-15T00:14:55;14.38;;;9.13;;
72275;SDS011;61204;49.980;8.358;2024-02-15T00:17:27;13.90;;;8.65;;
72275;SDS011;61204;49.980;8.358;2024-02-15T00:19:55;16.02;;;9.68;;
72275;SDS011;61204;49.980;8.358;2024-02-15T00:22:23;15.13;;;9.27;;
72275;SDS011;61204;49.980;8.358;2024-02-15T00:24:49;12.75;;;8.85;;
72275;SDS011;61204;49.980;8.358;2024-02-15T00:27:15;13.68;;;9.68;;
72275;SDS011;61204;49.980;8.358;2024-02-15T00:29:43;14.75;;;9.38;;
72275;SDS011;61204;49.980;8.358;2024-02-15T00:32:09;12.50;;;9.35;;
72275;SDS011;61204;49.980;8.358;2024-02-15T00:34:35;13.75;;;9.57;;
72275;SDS011;61204;49.980;8.358;2024-02-15T00:37:05;13.18;;;8.75;;
72275;SDS011;61204;49.980;8.358;2024-02-15T00:39:31;12.65;;;8.95;;
72275;SDS011;61204;49.980;8.358;2024-02-15T00:41:57;13.85;;;8.90;;
72275;SDS011;61204;49.980;8.358;2024-02-15T00:44:27;11.45;;;8.02;;
72275;SDS011;61204;49.980;8.358;2024-02-15T00:46:55;16.65;;;9.38;;
72275;SDS011;61204;49.980;8.358;2024-02-15T00:49:21;14.23;;;9.10;;
72275;SDS011;61204;49.980;8.358;2024-02-15T00:51:47;14.75;;;8.57;;
72275;SDS011;61204;49.980;8.358;2024-02-15T00:54:15;14.10;;;9.43;;
72275;SDS011;61204;49.980;8.358;2024-02-15T00:56:41;16.73;;;10.00;;
72275;SDS011;61204;49.980;8.358;2024-02-15T00:59:09;17.50;;;11.10;;
72275;SDS011;61204;49.980;8.358;2024-02-15T01:01:35;16.40;;;12.77;;
72275;SDS011;61204;49.980;8.358;2024-02-15T01:04:03;16.77;;;10.30;;
72275;SDS011;61204;49.980;8.358;2024-02-15T01:06:30;16.90;;;11.82;;
72275;SDS011;61204;49.980;8.358;2024-02-15T01:08:56;15.48;;;10.55;;
72275;SDS011;61204;49.980;8.358;2024-02-15T01:11:22;16.70;;;10.18;;
72275;SDS011;61204;49.980;8.358;2024-02-15T01:13:49;17.77;;;10.00;;
72275;SDS011;61204;49.980;8.358;2024-02-15T01:16:16;15.10;;;9.90;;
72275;SDS011;61204;49.980;8.358;2024-02-15T01:18:41;16.38;;;8.80;;
72275;SDS011;61204;49.980;8.358;2024-02-15T01:21:07;14.65;;;9.20;;
72275;SDS011;61204;49.980;8.358;2024-02-15T01:23:33;16.75;;;8.57;;
72275;SDS011;61204;49.980;8.358;2024-02-15T01:26:01;16.42;;;9.70;;
72275;SDS011;61204;49.980;8.358;2024-02-15T01:28:28;17.27;;;9.15;;
72275;SDS011;61204;49.980;8.358;2024-02-15T01:30:53;15.27;;;9.52;;
72275;SDS011;61204;49.980;8.358;2024-02-15T01:33:19;14.15;;;9.55;;
72275;SDS011;61204;49.980;8.358;2024-02-15T01:35:45;12.63;;;9.20;;
72275;SDS011;61204;49.980;8.358;2024-02-15T01:38:13;14.48;;;9.20;;
72275;SDS011;61204;49.980;8.358;2024-02-15T01:40:40;14.88;;;9.05;;
72275;SDS011;61204;49.980;8.358;2024-02-15T01:43:05;12.75;;;8.77;;
72275;SDS011;61204;49.980;8.358;2024-02-15T01:45:31;17.08;;;9.35;;
72275;SDS011;61204;49.980;8.358;2024-02-15T01:47:59;13.90;;;8.40;;
72275;SDS011;61204;49.980;8.358;2024-02-15T01:50:28;14.90;;;7.72;;
72275;SDS011;61204;49.980;8.358;2024-02-15T01:52:57;10.77;;;7.88;;
72275;SDS011;61204;49.980;8.358;2024-02-15T01:55:24;16.77;;;8.93;;
72275;SDS011;61204;49.980;8.358;2024-02-15T01:57:50;9.32;;;7.07;;
72275;SDS011;61204;49.980;8.358;2024-02-15T02:00:17;10.32;;;7.03;;
72275;SDS011;61204;49.980;8.358;2024-02-15T02:02:45;8.90;;;7.35;;
72275;SDS011;61204;49.980;8.358;2024-02-15T02:05:12;9.38;;;6.95;;
72275;SDS011;61204;49.980;8.358;2024-02-15T02:07:38;10.73;;;7.53;;
72275;SDS011;61204;49.980;8.358;2024-02-15T02:10:03;12.57;;;7.78;;
72275;SDS011;61204;49.980;8.358;2024-02-15T02:12:30;14.60;;;8.20;;
72275;SDS011;61204;49.980;8.358;2024-02-15T02:14:57;12.35;;;7.88;;
72275;SDS011;61204;49.980;8.358;2024-02-15T02:17:22;11.00;;;7.78;;
72275;SDS011;61204;49.980;8.358;2024-02-15T02:19:48;11.55;;;7.85;;
72275;SDS011;61204;49.980;8.358;2024-02-15T02:22:15;11.63;;;8.20;;
72275;SDS011;61204;49.980;8.358;2024-02-15T02:25:04;16.15;;;8.70;;
72275;SDS011;61204;49.980;8.358;2024-02-15T02:27:34;14.77;;;8.75;;
72275;SDS011;61204;49.980;8.358;2024-02-15T02:30:04;10.65;;;8.27;;
72275;SDS011;61204;49.980;8.358;2024-02-15T02:32:40;14.95;;;8.73;;
72275;SDS011;61204;49.980;8.358;2024-02-15T02:35:07;12.23;;;7.95;;
72275;SDS011;61204;49.980;8.358;2024-02-15T02:37:36;10.52;;;6.93;;
72275;SDS011;61204;49.980;8.358;2024-02-15T02:40:05;13.27;;;7.65;;
72275;SDS011;61204;49.980;8.358;2024-02-15T02:42:54;11.38;;;8.02;;
72275;SDS011;61204;49.980;8.358;2024-02-15T02:45:23;11.50;;;7.43;;
72275;SDS011;61204;49.980;8.358;2024-02-15T02:47:51;10.27;;;7.60;;
72275;SDS011;61204;49.980;8.358;2024-02-15T02:50:21;10.35;;;7.30;;
72275;SDS011;61204;49.980;8.358;2024-02-15T02:52:50;13.20;;;7.60;;
72275;SDS011;61204;49.980;8.358;2024-02-15T02:55:18;11.00;;;7.60;;
72275;SDS011;61204;49.980;8.358;2024-02-15T02:57:45;11.95;;;6.70;;
72275;SDS011;61204;49.980;8.358;2024-02-15T03:00:12;13.70;;;7.18;;
72275;SDS011;61204;49.980;8.358;2024-02-15T03:02:42;9.88;;;6.40;;
72275;SDS011;61204;49.980;8.358;2024-02-15T03:05:09;8.55;;;6.80;;
72275;SDS011;61204;49.980;8.358;2024-02-15T03:07:36;10.73;;;6.30;;
72275;SDS011;61204;49.980;8.358;2024-02-15T03:10:05;10.32;;;6.57;;
72275;SDS011;61204;49.980;8.358;2024-02-15T03:12:38;9.77;;;5.93;;
72275;SDS011;61204;49.980;8.358;2024-02-15T03:15:15;8.07;;;5.75;;
72275;SDS011;61204;49.980;8.358;2024-02-15T03:17:47;9.38;;;6.07;;
72275;SDS011;61204;49.980;8.358;2024-02-15T03:20:15;9.68;;;5.60;;
72275;SDS011;61204;49.980;8.358;2024-02-15T03:22:58;8.27;;;5.68;;
72275;SDS011;61204;49.980;8.358;2024-02-15T03:25:26;9.57;;;5.88;;
72275;SDS011;61204;49.980;8.358;2024-02-15T03:27:57;11.68;;;5.80;;
72275;SDS011;61204;49.980;8.358;2024-02-15T03:30:30;7.80;;;5.47;;
72275;SDS011;61204;49.980;8.358;2024-02-15T03:32:58;9.32;;;5.97;;
72275;SDS011;61204;49.980;8.358;2024-02-15T03:35:25;7.90;;;5.57;;
72275;SDS011;61204;49.980;8.358;2024-02-15T03:37:56;9.77;;;5.72;;
72275;SDS011;61204;49.980;8.358;2024-02-15T03:40:22;10.02;;;5.35;;
72275;SDS011;61204;49.980;8.358;2024-02-15T03:42:51;7.28;;;5.80;;
72275;SDS011;61204;49.980;8.358;2024-02-15T03:45:18;8.68;;;5.90;;
72275;SDS011;61204;49.980;8.358;2024-02-15T03:47:44;8.57;;;5.43;;
72275;SDS011;61204;49.980;8.358;2024-02-15T03:50:10;9.55;;;5.50;;
72275;SDS011;61204;49.980;8.358;2024-02-15T03:52:39;8.77;;;5.57;;
72275;SDS011;61204;49.980;8.358;2024-02-15T03:55:06;8.85;;;5.57;;
72275;SDS011;61204;49.980;8.358;2024-02-15T03:57:32;7.88;;;5.35;;
72275;SDS011;61204;49.980;8.358;2024-02-15T03:59:59;9.30;;;6.18;;
72275;SDS011;61204;49.980;8.358;2024-02-15T04:02:25;8.13;;;5.63;;
72275;SDS011;61204;49.980;8.358;2024-02-15T04:04:52;8.45;;;6.15;;
72275;SDS011;61204;49.980;8.358;2024-02-15T04:07:20;10.23;;;5.38;;
72275;SDS011;61204;49.980;8.358;2024-02-15T04:09:51;7.80;;;5.22;;
72275;SDS011;61204;49.980;8.358;2024-02-15T04:12:18;8.88;;;5.70;;
72275;SDS011;61204;49.980;8.358;2024-02-15T04:14:44;10.15;;;6.15;;
72275;SDS011;61204;49.980;8.358;2024-02-15T04:17:10;7.68;;;5.15;;
72275;SDS011;61204;49.980;8.358;2024-02-15T04:19:44;7.50;;;5.50;;
72275;SDS011;61204;49.980;8.358;2024-02-15T04:22:15;7.97;;;5.32;;
72275;SDS011;61204;49.980;8.358;2024-02-15T04:24:44;8.23;;;5.45;;
72275;SDS011;61204;49.980;8.358;2024-02-15T04:27:10;11.85;;;5.70;;
72275;SDS011;61204;49.980;8.358;2024-02-15T04:29:42;9.27;;;5.07;;
72275;SDS011;61204;49.980;8.358;2024-02-15T04:32:09;8.88;;;4.70;;
72275;SDS011;61204;49.980;8.358;2024-02-15T04:34:36;7.93;;;5.55;;
72275;SDS011;61204;49.980;8.358;2024-02-15T04:37:03;7.90;;;5.32;;
72275;SDS011;61204;49.980;8.358;2024-02-15T04:39:33;9.00;;;5.97;;
72275;SDS011;61204;49.980;8.358;2024-02-15T04:42:00;8.85;;;5.22;;
72275;SDS011;61204;49.980;8.358;2024-02-15T04:44:32;9.27;;;5.45;;
72275;SDS011;61204;49.980;8.358;2024-02-15T04:47:00;7.28;;;4.72;;
72275;SDS011;61204;49.980;8.358;2024-02-15T04:49:29;7.22;;;5.30;;
72275;SDS011;61204;49.980;8.358;2024-02-15T04:51:55;9.63;;;5.20;;
72275;SDS011;61204;49.980;8.358;2024-02-15T04:54:22;7.47;;;5.75;;
72275;SDS011;61204;49.980;8.358;2024-02-15T04:56:48;8.23;;;5.10;;
72275;SDS011;61204;49.980;8.358;2024-02-15T04:59:19;8.32;;;5.65;;
72275;SDS011;61204;49.980;8.358;2024-02-15T05:01:50;8.45;;;5.25;;
72275;SDS011;61204;49.980;8.358;2024-02-15T05:04:18;10.57;;;5.70;;
72275;SDS011;61204;49.980;8.358;2024-02-15T05:06:43;8.05;;;5.47;;
72275;SDS011;61204;49.980;8.358;2024-02-15T05:09:10;9.73;;;5.57;;
72275;SDS011;61204;49.980;8.358;2024-02-15T05:11:36;8.70;;;5.53;;
72275;SDS011;61204;49.980;8.358;2024-02-15T05:14:08;10.70;;;6.43;;
72275;SDS011;61204;49.980;8.358;2024-02-15T05:16:36;10.55;;;6.57;;
72275;SDS011;61204;49.980;8.358;2024-02-15T05:19:11;7.88;;;5.50;;
72275;SDS011;61204;49.980;8.358;2024-02-15T05:21:37;8.85;;;5.03;;
72275;SDS011;61204;49.980;8.358;2024-02-15T05:24:05;9.38;;;6.07;;
72275;SDS011;61204;49.980;8.358;2024-02-15T05:26:31;8.73;;;5.72;;
72275;SDS011;61204;49.980;8.358;2024-02-15T05:28:57;11.50;;;5.78;;
72275;SDS011;61204;49.980;8.358;2024-02-15T05:31:23;12.68;;;5.43;;
72275;SDS011;61204;49.980;8.358;2024-02-15T05:33:52;9.00;;;5.18;;
72275;SDS011;61204;49.980;8.358;2024-02-15T05:36:19;8.48;;;5.90;;
72275;SDS011;61204;49.980;8.358;2024-02-15T05:38:50;8.77;;;5.25;;
72275;SDS011;61204;49.980;8.358;2024-02-15T05:41:20;7.70;;;4.95;;
72275;SDS011;61204;49.980;8.358;2024-02-15T05:43:46;14.32;;;5.03;;
72275;SDS011;61204;49.980;8.358;2024-02-15T05:46:14;9.45;;;4.68;;
72275;SDS011;61204;49.980;8.358;2024-02-15T05:48:40;8.98;;;4.80;;
72275;SDS011;61204;49.980;8.358;2024-02-15T05:51:06;9.93;;;5.13;;
72275;SDS011;61204;49.980;8.358;2024-02-15T05:53:33;8.02;;;4.90;;
72275;SDS011;61204;49.980;8.358;2024-02-15T05:56:01;10.57;;;5.07;;
72275;SDS011;61204;49.980;8.358;2024-02-15T05:58:30;8.68;;;4.60;;
72275;SDS011;61204;49.980;8.358;2024-02-15T06:00:57;8.05;;;4.90;;
72275;SDS011;61204;49.980;8.358;2024-02-15T06:03:30;6.93;;;4.93;;
72275;SDS011;61204;49.980;8.358;2024-02-15T06:06:02;7.18;;;4.53;;
72275;SDS011;61204;49.980;8.358;2024-02-15T06:08:32;7.60;;;4.97;;
72275;SDS011;61204;49.980;8.358;2024-02-15T06:10:59;7.55;;;4.68;;
72275;SDS011;61204;49.980;8.358;2024-02-15T06:13:25;6.88;;;4.68;;
72275;SDS011;61204;49.980;8.358;2024-02-15T06:15:54;6.93;;;4.82;;
72275;SDS011;61204;49.980;8.358;2024-02-15T06:20:52;7.57;;;4.65;;
72275;SDS011;61204;49.980;8.358;2024-02-15T06:23:19;7.20;;;4.25;;
72275;SDS011;61204;49.980;8.358;2024-02-15T06:25:46;7.85;;;4.47;;
72275;SDS011;61204;49.980;8.358;2024-02-15T06:28:16;8.55;;;5.03;;
72275;SDS011;61204;49.980;8.358;2024-02-15T06:31:08;10.95;;;5.25;;
72275;SDS011;61204;49.980;8.358;2024-02-15T06:33:55;9.02;;;5.22;;
72275;SDS011;61204;49.980;8.358;2024-02-15T06:36:45;14.27;;;5.57;;
72275;SDS011;61204;49.980;8.358;2024-02-15T06:39:35;10.10;;;4.93;;
72275;SDS011;61204;49.980;8.358;2024-02-15T06:42:08;9.50;;;4.70;;
72275;SDS011;61204;49.980;8.358;2024-02-15T06:44:46;8.15;;;4.78;;
72275;SDS011;61204;49.980;8.358;2024-02-15T06:47:13;11.10;;;5.15;;
72275;SDS011;61204;49.980;8.358;2024-02-15T06:49:42;8.38;;;5.07;;
72275;SDS011;61204;49.980;8.358;2024-02-15T06:52:11;8.07;;;5.47;;
72275;SDS011;61204;49.980;8.358;2024-02-15T06:54:40;9.30;;;5.22;;
72275;SDS011;61204;49.980;8.358;2024-02-15T06:57:06;9.05;;;5.70;;
72275;SDS011;61204;49.980;8.358;2024-02-15T06:59:32;10.20;;;5.80;;
72275;SDS011;61204;49.980;8.358;2024-02-15T07:02:00;11.65;;;5.78;;
72275;SDS011;61204;49.980;8.358;2024-02-15T07:04:27;13.38;;;7.18;;
72275;SDS011;61204;49.980;8.358;2024-02-15T07:06:53;8.75;;;6.10;;
72275;SDS011;61204;49.980;8.358;2024-02-15T07:09:22;12.82;;;7.03;;
72275;SDS011;61204;49.980;8.358;2024-02-15T07:11:50;11.65;;;5.88;;
72275;SDS011;61204;49.980;8.358;2024-02-15T07:14:17;9.73;;;6.32;;
72275;SDS011;61204;49.980;8.358;2024-02-15T07:16:46;10.68;;;5.75;;
72275;SDS011;61204;49.980;8.358;2024-02-15T07:19:14;9.45;;;6.55;;
72275;SDS011;61204;49.980;8.358;2024-02-15T07:21:41;13.70;;;6.38;;
72275;SDS011;61204;49.980;8.358;2024-02-15T07:24:11;11.48;;;5.72;;
72275;SDS011;61204;49.980;8.358;2024-02-15T07:26:37;9.52;;;5.18;;
72275;SDS011;61204;49.980;8.358;2024-02-15T07:29:03;8.75;;;5.65;;
72275;SDS011;61204;49.980;8.358;2024-02-15T07:31:31;7.90;;;5.70;;
72275;SDS011;61204;49.980;8.358;2024-02-15T07:34:00;10.50;;;6.28;;
72275;SDS011;61204;49.980;8.358;2024-02-15T07:36:26;8.13;;;4.80;;
72275;SDS011;61204;49.980;8.358;2024-02-15T07:38:55;8.43;;;4.85;;
72275;SDS011;61204;49.980;8.358;2024-02-15T07:41:25;12.85;;;5.68;;
72275;SDS011;61204;49.980;8.358;2024-02-15T07:43:52;8.45;;;5.47;;
72275;SDS011;61204;49.980;8.358;2024-02-15T07:46:20;10.43;;;5.70;;
72275;SDS011;61204;49.980;8.358;2024-02-15T07:48:47;9.95;;;6.47;;
72275;SDS011;61204;49.980;8.358;2024-02-15T07:51:13;9.05;;;6.03;;
72275;SDS011;61204;49.980;8.358;2024-02-15T07:53:44;5.88;;;4.85;;
72275;SDS011;61204;49.980;8.358;2024-02-15T07:56:10;9.32;;;5.07;;
72275;SDS011;61204;49.980;8.358;2024-02-15T07:58:40;9.25;;;5.68;;
72275;SDS011;61204;49.980;8.358;2024-02-15T08:01:07;8.07;;;4.82;;
72275;SDS011;61204;49.980;8.358;2024-02-15T08:03:36;8.13;;;5.03;;
72275;SDS011;61204;49.980;8.358;2024-02-15T08:06:02;11.65;;;5.20;;
72275;SDS011;61204;49.980;8.358;2024-02-15T08:08:31;6.68;;;4.78;;
72275;SDS011;61204;49.980;8.358;2024-02-15T08:11:01;9.20;;;4.88;;
72275;SDS011;61204;49.980;8.358;2024-02-15T08:13:31;7.30;;;4.72;;
72275;SDS011;61204;49.980;8.358;2024-02-15T08:15:56;7.45;;;4.50;;
72275;SDS011;61204;49.980;8.358;2024-02-15T08:18:22;8.18;;;5.00;;
72275;SDS011;61204;49.980;8.358;2024-02-15T08:20:47;8.30;;;4.43;;
72275;SDS011;61204;49.980;8.358;2024-02-15T08:23:13;9.20;;;4.82;;
72275;SDS011;61204;49.980;8.358;2024-02-15T08:25:38;7.75;;;4.43;;
72275;SDS011;61204;49.980;8.358;2024-02-15T08:28:06;10.60;;;5.45;;
72275;SDS011;61204;49.980;8.358;2024-02-15T08:30:32;8.75;;;4.43;;
72275;SDS011;61204;49.980;8.358;2024-02-15T08:32:58;6.32;;;4.10;;
72275;SDS011;61204;49.980;8.358;2024-02-15T08:35:24;8.43;;;5.05;;
72275;SDS011;61204;49.980;8.358;2024-02-15T08:37:49;7.70;;;4.50;;
72275;SDS011;61204;49.980;8.358;2024-02-15T08:40:18;6.07;;;3.83;;
72275;SDS011;61204;49.980;8.358;2024-02-15T08:42:49;6.53;;;4.15;;
72275;SDS011;61204;49.980;8.358;2024-02-15T08:45:15;7.32;;;3.90;;
72275;SDS011;61204;49.980;8.358;2024-02-15T08:47:41;5.85;;;4.13;;
72275;SDS011;61204;49.980;8.358;2024-02-15T08:50:11;8.52;;;4.35;;
72275;SDS011;61204;49.980;8.358;2024-02-15T08:52:37;6.72;;;4.20;;
72275;SDS011;61204;49.980;8.358;2024-02-15T08:55:07;7.53;;;3.97;;
72275;SDS011;61204;49.980;8.358;2024-02-15T08:57:36;9.52;;;4.45;;
72275;SDS011;61204;49.980;8.358;2024-02-15T09:00:05;11.55;;;4.88;;
72275;SDS011;61204;49.980;8.358;2024-02-15T09:02:38;6.22;;;4.13;;
72275;SDS011;61204;49.980;8.358;2024-02-15T09:05:10;7.05;;;4.65;;
72275;SDS011;61204;49.980;8.358;2024-02-15T09:07:39;4.90;;;3.60;;
72275;SDS011;61204;49.980;8.358;2024-02-15T09:10:12;7.65;;;4.25;;
72275;SDS011;61204;49.980;8.358;2024-02-15T09:12:42;7.63;;;4.07;;
72275;SDS011;61204;49.980;8.358;2024-02-15T09:15:14;8.65;;;4.80;;
72275;SDS011;61204;49.980;8.358;2024-02-15T09:17:41;6.30;;;4.10;;
72275;SDS011;61204;49.980;8.358;2024-02-15T09:20:09;4.97;;;3.70;;
72275;SDS011;61204;49.980;8.358;2024-02-15T09:22:44;8.13;;;4.78;;
72275;SDS011;61204;49.980;8.358;2024-02-15T09:25:17;7.63;;;3.92;;
72275;SDS011;61204;49.980;8.358;2024-02-15T09:27:44;8.27;;;4.15;;
72275;SDS011;61204;49.980;8.358;2024-02-15T09:30:10;8.38;;;4.78;;
72275;SDS011;61204;49.980;8.358;2024-02-15T09:32:40;5.47;;;4.05;;
72275;SDS011;61204;49.980;8.358;2024-02-15T09:35:09;9.80;;;4.35;;
72275;SDS011;61204;49.980;8.358;2024-02-15T09:37:47;6.68;;;3.78;;
72275;SDS011;61204;49.980;8.358;2024-02-15T09:40:14;7.40;;;4.32;;
72275;SDS011;61204;49.980;8.358;2024-02-15T09:42:42;6.53;;;3.55;;
72275;SDS011;61204;49.980;8.358;2024-02-15T09:45:10;4.32;;;3.53;;
72275;SDS011;61204;49.980;8.358;2024-02-15T09:47:39;8.27;;;3.55;;
72275;SDS011;61204;49.980;8.358;2024-02-15T09:50:13;5.45;;;3.60;;
72275;SDS011;61204;49.980;8.358;2024-02-15T09:52:52;6.07;;;3.53;;
72275;SDS011;61204;49.980;8.358;2024-02-15T09:55:24;5.80;;;3.83;;
72275;SDS011;61204;49.980;8.358;2024-02-15T09:57:51;6.93;;;3.88;;
72275;SDS011;61204;49.980;8.358;2024-02-15T10:00:17;9.13;;;4.25;;
72275;SDS011;61204;49.980;8.358;2024-02-15T10:02:43;10.20;;;3.40;;
72275;SDS011;61204;49.980;8.358;2024-02-15T10:05:13;9.05;;;3.60;;
72275;SDS011;61204;49.980;8.358;2024-02-15T10:07:39;10.82;;;3.70;;
72275;SDS011;61204;49.980;8.358;2024-02-15T10:12:50;12.35;;;4.13;;
72275;SDS011;61204;49.980;8.358;2024-02-15T10:15:33;10.32;;;4.20;;
72275;SDS011;61204;49.980;8.358;2024-02-15T10:18:06;4.57;;;3.28;;
72275;SDS011;61204;49.980;8.358;2024-02-15T10:20:37;5.50;;;3.42;;
72275;SDS011;61204;49.980;8.358;2024-02-15T10:25:33;6.10;;;3.95;;
72275;SDS011;61204;49.980;8.358;2024-02-15T10:28:07;7.75;;;3.90;;
72275;SDS011;61204;49.980;8.358;2024-02-15T10:30:43;3.85;;;2.95;;
72275;SDS011;61204;49.980;8.358;2024-02-15T10:33:20;4.40;;;2.95;;
72275;SDS011;61204;49.980;8.358;2024-02-15T10:36:05;5.00;;;3.22;;
72275;SDS011;61204;49.980;8.358;2024-02-15T10:38:33;6.43;;;3.47;;
72275;SDS011;61204;49.980;8.358;2024-02-15T10:41:04;4.90;;;2.75;;
72275;SDS011;61204;49.980;8.358;2024-02-15T10:43:33;4.60;;;2.85;;
72275;SDS011;61204;49.980;8.358;2024-02-15T10:46:02;4.47;;;2.72;;
72275;SDS011;61204;49.980;8.358;2024-02-15T10:48:28;8.15;;;2.80;;
72275;SDS011;61204;49.980;8.358;2024-02-15T10:50:56;5.75;;;3.22;;
72275;SDS011;61204;49.980;8.358;2024-02-15T10:53:28;5.22;;;3.10;;
72275;SDS011;61204;49.980;8.358;2024-02-15T10:58:41;4.72;;;3.20;;
72275;SDS011;61204;49.980;8.358;2024-02-15T11:01:29;7.68;;;3.17;;
72275;SDS011;61204;49.980;8.358;2024-02-15T11:03:59;5.65;;;2.60;;
72275;SDS011;61204;49.980;8.358;2024-02-15T11:06:38;5.00;;;3.17;;
72275;SDS011;61204;49.980;8.358;2024-02-15T11:09:09;5.00;;;2.80;;
72275;SDS011;61204;49.980;8.358;2024-02-15T11:11:37;5.18;;;2.90;;
72275;SDS011;61204;49.980;8.358;2024-02-15T11:16:58;8.48;;;2.78;;
72275;SDS011;61204;49.980;8.358;2024-02-15T11:21:57;6.70;;;3.08;;
72275;SDS011;61204;49.980;8.358;2024-02-15T11:24:30;4.60;;;3.33;;
72275;SDS011;61204;49.980;8.358;2024-02-15T11:27:00;5.15;;;2.72;;
72275;SDS011;61204;49.980;8.358;2024-02-15T11:29:47;4.00;;;2.55;;
72275;SDS011;61204;49.980;8.358;2024-02-15T11:32:39;3.35;;;2.58;;
72275;SDS011;61204;49.980;8.358;2024-02-15T11:35:18;7.25;;;3.05;;
72275;SDS011;61204;49.980;8.358;2024-02-15T11:37:50;3.95;;;2.70;;
72275;SDS011;61204;49.980;8.358;2024-02-15T11:40:15;4.78;;;2.60;;
72275;SDS011;61204;49.980;8.358;2024-02-15T11:42:59;5.40;;;2.33;;
72275;SDS011;61204;49.980;8.358;2024-02-15T11:45:26;3.75;;;2.30;;
72275;SDS011;61204;49.980;8.358;2024-02-15T11:47:59;3.35;;;2.25;;
72275;SDS011;61204;49.980;8.358;2024-02-15T11:50:27;7.90;;;2.33;;
72275;SDS011;61204;49.980;8.358;2024-02-15T11:53:00;5.70;;;2.15;;
72275;SDS011;61204;49.980;8.358;2024-02-15T11:55:39;5.93;;;2.33;;
72275;SDS011;61204;49.980;8.358;2024-02-15T11:58:07;2.60;;;1.77;;
72275;SDS011;61204;49.980;8.358;2024-02-15T12:00:36;4.18;;;1.92;;
72275;SDS011;61204;49.980;8.358;2024-02-15T12:03:21;3.05;;;1.70;;
72275;SDS011;61204;49.980;8.358;2024-02-15T12:06:07;4.65;;;1.80;;
72275;SDS011;61204;49.980;8.358;2024-02-15T12:08:52;5.32;;;2.17;;
72275;SDS011;61204;49.980;8.358;2024-02-15T12:11:38;5.38;;;2.25;;
72275;SDS011;61204;49.980;8.358;2024-02-15T12:14:24;4.78;;;1.83;;
72275;SDS011;61204;49.980;8.358;2024-02-15T12:17:11;5.95;;;2.22;;
72275;SDS011;61204;49.980;8.358;2024-02-15T12:20:02;5.55;;;2.10;;
72275;SDS011;61204;49.980;8.358;2024-02-15T12:22:45;2.35;;;1.30;;
72275;SDS011;61204;49.980;8.358;2024-02-15T12:25:16;4.82;;;1.90;;
72275;SDS011;61204;49.980;8.358;2024-02-15T12:27:46;2.80;;;1.63;;
72275;SDS011;61204;49.980;8.358;2024-02-15T12:30:19;5.03;;;2.15;;
72275;SDS011;61204;49.980;8.358;2024-02-15T12:32:46;4.32;;;1.40;;
72275;SDS011;61204;49.980;8.358;2024-02-15T12:35:17;3.00;;;1.85;;
72275;SDS011;61204;49.980;8.358;2024-02-15T12:40:29;3.33;;;1.70;;
72275;SDS011;61204;49.980;8.358;2024-02-15T12:42:57;2.78;;;1.55;;
72275;SDS011;61204;49.980;8.358;2024-02-15T12:45:26;5.45;;;2.03;;
72275;SDS011;61204;49.980;8.358;2024-02-15T12:47:53;3.15;;;1.40;;
72275;SDS011;61204;49.980;8.358;2024-02-15T12:50:22;4.10;;;1.83;;
72275;SDS011;61204;49.980;8.358;2024-02-15T12:52:54;4.40;;;1.40;;
72275;SDS011;61204;49.980;8.358;2024-02-15T12:55:28;3.88;;;1.30;;
72275;SDS011;61204;49.980;8.358;2024-02-15T12:58:02;3.97;;;1.42;;
72275;SDS011;61204;49.980;8.358;2024-02-15T13:00:41;2.92;;;1.35;;
72275;SDS011;61204;49.980;8.358;2024-02-15T13:03:09;2.42;;;1.42;;
72275;SDS011;61204;49.980;8.358;2024-02-15T13:05:35;2.50;;;1.20;;
72275;SDS011;61204;49.980;8.358;2024-02-15T13:08:06;5.00;;;1.38;;
72275;SDS011;61204;49.980;8.358;2024-02-15T13:10:38;3.85;;;1.20;;
72275;SDS011;61204;49.980;8.358;2024-02-15T13:13:04;3.60;;;1.08;;
72275;SDS011;61204;49.980;8.358;2024-02-15T13:15:33;5.05;;;1.13;;
72275;SDS011;61204;49.980;8.358;2024-02-15T13:17:59;5.07;;;1.27;;
72275;SDS011;61204;49.980;8.358;2024-02-15T13:20:26;4.18;;;1.73;;
72275;SDS011;61204;49.980;8.358;2024-02-15T13:23:00;3.30;;;0.90;;
72275;SDS011;61204;49.980;8.358;2024-02-15T13:25:40;3.35;;;1.70;;
72275;SDS011;61204;49.980;8.358;2024-02-15T13:28:11;3.53;;;1.13;;
72275;SDS011;61204;49.980;8.358;2024-02-15T13:30:37;4.47;;;1.50;;
72275;SDS011;61204;49.980;8.358;2024-02-15T13:33:04;5.00;;;1.17;;
72275;SDS011;61204;49.980;8.358;2024-02-15T13:35:31;2.45;;;1.33;;
72275;SDS011;61204;49.980;8.358;2024-02-15T13:37:57;2.80;;;1.08;;
72275;SDS011;61204;49.980;8.358;2024-02-15T13:40:26;2.33;;;0.93;;
72275;SDS011;61204;49.980;8.358;2024-02-15T13:42:55;2.88;;;1.17;;
72275;SDS011;61204;49.980;8.358;2024-02-15T13:45:39;3.75;;;1.38;;
72275;SDS011;61204;49.980;8.358;2024-02-15T13:48:06;3.88;;;1.30;;
72275;SDS011;61204;49.980;8.358;2024-02-15T13:50:38;6.28;;;1.40;;
72275;SDS011;61204;49.980;8.358;2024-02-15T13:53:04;4.97;;;1.45;;
72275;SDS011;61204;49.980;8.358;2024-02-15T13:55:34;5.90;;;1.65;;
72275;SDS011;61204;49.980;8.358;2024-02-15T13:58:01;2.65;;;1.27;;
72275;SDS011;61204;49.980;8.358;2024-02-15T14:00:26;2.63;;;1.30;;
72275;SDS011;61204;49.980;8.358;2024-02-15T14:03:02;3.75;;;1.10;;
72275;SDS011;61204;49.980;8.358;2024-02-15T14:05:31;4.32;;;0.95;;
72275;SDS011;61204;49.980;8.358;2024-02-15T14:08:01;5.25;;;1.42;;
72275;SDS011;61204;49.980;8.358;2024-02-15T14:10:34;2.75;;;1.10;;
72275;SDS011;61204;49.980;8.358;2024-02-15T14:13:01;4.68;;;1.20;;
72275;SDS011;61204;49.980;8.358;2024-02-15T14:15:34;4.47;;;1.55;;
72275;SDS011;61204;49.980;8.358;2024-02-15T14:18:08;2.33;;;1.08;;
72275;SDS011;61204;49.980;8.358;2024-02-15T14:23:06;4.55;;;1.38;;
72275;SDS011;61204;49.980;8.358;2024-02-15T14:25:38;3.03;;;1.35;;
72275;SDS011;61204;49.980;8.358;2024-02-15T14:28:05;2.42;;;1.08;;
72275;SDS011;61204;49.980;8.358;2024-02-15T14:30:33;4.72;;;1.40;;
72275;SDS011;61204;49.980;8.358;2024-02-15T14:33:19;4.22;;;1.75;;
72275;SDS011;61204;49.980;8.358;2024-02-15T14:35:48;2.95;;;1.00;;
72275;SDS011;61204;49.980;8.358;2024-02-15T14:38:15;3.40;;;1.10;;
72275;SDS011;61204;49.980;8.358;2024-02-15T14:40:44;2.22;;;1.08;;
72275;SDS011;61204;49.980;8.358;2024-02-15T14:43:28;8.45;;;1.50;;
72275;SDS011;61204;49.980;8.358;2024-02-15T14:45:53;4.53;;;1.25;;
72275;SDS011;61204;49.980;8.358;2024-02-15T14:48:21;2.97;;;0.80;;
72275;SDS011;61204;49.980;8.358;2024-02-15T14:50:49;6.20;;;2.25;;
72275;SDS011;61204;49.980;8.358;2024-02-15T14:53:15;3.88;;;1.20;;
72275;SDS011;61204;49.980;8.358;2024-02-15T14:55:43;4.90;;;1.45;;
72275;SDS011;61204;49.980;8.358;2024-02-15T14:58:11;3.13;;;1.23;;
72275;SDS011;61204;49.980;8.358;2024-02-15T15:00:41;2.78;;;1.25;;
72275;SDS011;61204;49.980;8.358;2024-02-15T15:03:08;3.28;;;1.38;;
72275;SDS011;61204;49.980;8.358;2024-02-15T15:05:34;6.47;;;1.25;;
72275;SDS011;61204;49.980;8.358;2024-02-15T15:08:18;3.08;;;1.90;;
72275;SDS011;61204;49.980;8.358;2024-02-15T15:11:04;4.30;;;1.30;;
72275;SDS011;61204;49.980;8.358;2024-02-15T15:13:48;2.55;;;1.25;;
72275;SDS011;61204;49.980;8.358;2024-02-15T15:16:14;3.40;;;1.20;;
72275;SDS011;61204;49.980;8.358;2024-02-15T15:18:42;6.05;;;1.83;;